createdAt,value
2023-03-03T00:00:37.048Z,229.70
2023-03-03T00:03:07.603Z,252.20
2023-03-03T00:05:35.485Z,250.57
2023-03-03T00:08:03.375Z,248.70
2023-03-03T00:10:30.447Z,272.40
2023-03-03T00:12:57.353Z,256.35
2023-03-03T00:15:25.495Z,274.52
2023-03-03T00:17:53.894Z,285.45
2023-03-03T00:20:40.260Z,299.60
2023-03-03T00:23:35.557Z,304.77
2023-03-03T00:26:13.893Z,304.80
2023-03-03T00:28:47.447Z,318.05
2023-03-03T00:31:36.267Z,305.20
2023-03-03T00:34:19.986Z,306.75
2023-03-03T00:36:56.322Z,317.25
2023-03-03T00:39:39.122Z,311.88
2023-03-03T00:44:46.864Z,258.70
2023-03-03T00:47:31.051Z,305.30
2023-03-03T00:50:25.525Z,309.00
2023-03-03T00:53:03.582Z,297.48
2023-03-03T00:55:31.243Z,297.50
2023-03-03T00:57:58.456Z,295.50
2023-03-03T01:03:07.927Z,294.05
2023-03-03T01:05:35.795Z,319.73
2023-03-03T01:08:04.968Z,287.00
2023-03-03T01:10:37.309Z,315.63
2023-03-03T01:13:06.037Z,303.05
2023-03-03T01:15:32.800Z,286.77
2023-03-03T01:18:00.234Z,290.55
2023-03-03T01:20:26.827Z,294.67
2023-03-03T01:22:53.877Z,294.05
2023-03-03T01:25:20.507Z,303.45
2023-03-03T01:27:47.772Z,299.55
2023-03-03T01:30:14.891Z,283.02
2023-03-03T01:32:42.129Z,295.58
2023-03-03T01:35:09.258Z,292.50
2023-03-03T01:37:37.023Z,301.77
2023-03-03T01:40:07.113Z,290.55
2023-03-03T01:42:33.780Z,289.48
2023-03-03T01:45:21.360Z,286.92
2023-03-03T01:47:59.300Z,293.73
2023-03-03T01:50:32.522Z,286.98
2023-03-03T01:53:02.992Z,282.65
2023-03-03T01:55:34.796Z,281.08
2023-03-03T01:58:14.681Z,295.75
2023-03-03T02:00:45.803Z,288.70
2023-03-03T02:03:13.192Z,277.25
2023-03-03T02:05:41.859Z,279.35
2023-03-03T02:08:11.689Z,276.77
2023-03-03T02:10:38.624Z,272.63
2023-03-03T02:13:06.008Z,298.20
2023-03-03T02:15:37.482Z,291.23
2023-03-03T02:18:09.638Z,281.92
2023-03-03T02:20:58.136Z,289.40
2023-03-03T02:23:57.853Z,265.38
2023-03-03T02:26:26.937Z,264.55
2023-03-03T02:28:59.576Z,285.20
2023-03-03T02:31:30.085Z,264.98
2023-03-03T02:33:58.637Z,285.63
2023-03-03T02:36:34.205Z,283.15
2023-03-03T02:39:10.411Z,306.30
2023-03-03T02:42:07.718Z,293.55
2023-03-03T02:47:07.847Z,294.95
2023-03-03T02:49:36.640Z,289.20
2023-03-03T02:52:07.246Z,299.67
2023-03-03T02:54:34.938Z,294.92
2023-03-03T02:57:04.266Z,287.50
2023-03-03T02:59:32.006Z,290.20
2023-03-03T03:02:07.197Z,268.08
2023-03-03T03:04:35.223Z,282.63
2023-03-03T03:07:01.878Z,284.58
2023-03-03T03:09:31.677Z,284.30
2023-03-03T03:12:02.272Z,276.95
2023-03-03T03:14:31.994Z,276.25
2023-03-03T03:16:59.147Z,287.02
2023-03-03T03:19:28.586Z,268.20
2023-03-03T03:21:56.622Z,282.67
2023-03-03T03:24:23.857Z,280.65
2023-03-03T03:26:58.277Z,275.92
2023-03-03T03:29:27.201Z,278.15
2023-03-03T03:31:54.240Z,264.25
2023-03-03T03:34:21.514Z,264.77
2023-03-03T03:36:49.933Z,275.85
2023-03-03T03:39:19.028Z,297.85
2023-03-03T03:41:47.538Z,264.42
2023-03-03T03:44:14.894Z,282.15
2023-03-03T03:46:41.611Z,260.77
2023-03-03T03:49:10.568Z,279.63
2023-03-03T03:51:41.067Z,269.73
2023-03-03T03:54:09.216Z,274.60
2023-03-03T03:56:37.509Z,260.67
2023-03-03T03:59:06.937Z,276.83
2023-03-03T04:01:34.589Z,289.80
2023-03-03T04:04:01.343Z,274.60
2023-03-03T04:06:28.606Z,275.33
2023-03-03T04:08:56.446Z,287.02
2023-03-03T04:11:24.572Z,255.77
2023-03-03T04:13:51.241Z,276.45
2023-03-03T04:16:18.633Z,267.38
2023-03-03T04:18:46.743Z,268.40
2023-03-03T04:21:16.747Z,264.35
2023-03-03T04:23:45.217Z,259.77
2023-03-03T04:26:12.473Z,263.70
2023-03-03T04:28:39.790Z,257.73
2023-03-03T04:31:08.245Z,269.13
2023-03-03T04:33:35.040Z,256.60
2023-03-03T04:36:05.093Z,264.52
2023-03-03T04:38:31.749Z,272.88
2023-03-03T04:40:59.724Z,274.55
2023-03-03T04:43:29.145Z,293.90
2023-03-03T04:45:57.077Z,283.15
2023-03-03T04:48:23.851Z,280.95
2023-03-03T04:50:51.179Z,257.73
2023-03-03T04:53:17.819Z,253.82
2023-03-03T04:55:45.204Z,262.52
2023-03-03T04:58:12.490Z,265.73
2023-03-03T05:00:40.445Z,241.90
2023-03-03T05:03:11.665Z,234.27
2023-03-03T05:08:08.312Z,279.30
2023-03-03T05:10:35.599Z,280.73
2023-03-03T05:13:02.267Z,275.17
2023-03-03T05:15:29.483Z,268.20
2023-03-03T05:17:57.059Z,267.92
2023-03-03T05:20:25.495Z,279.63
2023-03-03T05:22:52.347Z,280.40
2023-03-03T05:25:21.517Z,273.83
2023-03-03T05:27:48.431Z,282.20
2023-03-03T05:30:15.759Z,291.92
2023-03-03T05:32:42.433Z,271.45
2023-03-03T05:35:10.110Z,303.80
2023-03-03T05:37:36.733Z,267.23
2023-03-03T05:40:05.110Z,285.17
2023-03-03T05:42:32.151Z,295.92
2023-03-03T05:44:59.842Z,288.73
2023-03-03T05:47:26.547Z,294.15
2023-03-03T05:49:53.810Z,300.40
2023-03-03T05:52:20.528Z,300.10
2023-03-03T05:54:47.767Z,305.15
2023-03-03T05:57:14.449Z,287.58
2023-03-03T05:59:41.898Z,295.52
2023-03-03T06:02:08.642Z,296.30
2023-03-03T06:04:35.961Z,302.40
2023-03-03T06:07:02.579Z,300.73
2023-03-03T06:09:29.814Z,287.48
2023-03-03T06:11:56.381Z,305.60
2023-03-03T06:14:26.002Z,314.65
2023-03-03T06:16:53.526Z,298.08
2023-03-03T06:19:20.777Z,309.05
2023-03-03T06:21:47.401Z,308.27
2023-03-03T06:24:14.729Z,302.13
2023-03-03T06:26:41.874Z,308.65
2023-03-03T06:29:09.231Z,305.42
2023-03-03T06:31:36.646Z,310.17
2023-03-03T06:34:04.059Z,316.85
2023-03-03T06:36:30.719Z,307.45
2023-03-03T06:38:57.931Z,326.23
2023-03-03T06:41:24.523Z,301.17
2023-03-03T06:43:52.922Z,324.88
2023-03-03T06:46:19.666Z,318.33
2023-03-03T06:48:46.248Z,302.83
2023-03-03T06:51:35.293Z,301.98
2023-03-03T06:54:09.861Z,322.83
2023-03-03T06:56:38.138Z,309.75
2023-03-03T06:59:31.779Z,289.75
2023-03-03T07:01:58.468Z,284.65
2023-03-03T07:04:31.127Z,301.65
2023-03-03T07:07:00.154Z,275.50
2023-03-03T07:09:29.417Z,293.90
2023-03-03T07:12:09.933Z,306.60
2023-03-03T07:14:43.574Z,280.52
2023-03-03T07:17:17.371Z,302.58
2023-03-03T07:19:45.345Z,284.13
2023-03-03T07:22:18.574Z,271.70
2023-03-03T07:24:51.324Z,286.13
2023-03-03T07:27:26.447Z,265.05
2023-03-03T07:30:15.258Z,258.15
2023-03-03T07:32:45.160Z,243.10
2023-03-03T07:35:34.315Z,236.43
2023-03-03T07:38:01.195Z,255.25
2023-03-03T07:40:34.784Z,265.88
2023-03-03T07:43:19.703Z,261.85
2023-03-03T07:45:46.396Z,247.07
2023-03-03T07:48:13.308Z,244.43
2023-03-03T07:50:41.230Z,264.98
2023-03-03T07:53:29.142Z,248.52
2023-03-03T07:55:56.184Z,265.05
2023-03-03T07:58:41.202Z,242.10
2023-03-03T08:01:35.128Z,262.27
2023-03-03T08:04:13.415Z,264.17
2023-03-03T08:06:51.263Z,261.63
2023-03-03T08:09:45.186Z,259.60
2023-03-03T08:12:42.733Z,244.15
2023-03-03T08:15:28.685Z,250.60
2023-03-03T08:17:56.780Z,242.45
2023-03-03T08:20:35.932Z,243.15
2023-03-03T08:23:02.562Z,251.40
2023-03-03T08:25:29.939Z,244.25
2023-03-03T08:27:56.744Z,232.50
2023-03-03T08:30:24.049Z,242.35
2023-03-03T08:32:52.822Z,236.95
2023-03-03T08:35:20.334Z,246.10
2023-03-03T08:37:46.975Z,234.00
2023-03-03T08:40:14.499Z,239.00
2023-03-03T08:42:41.107Z,245.57
2023-03-03T08:45:08.507Z,246.05
2023-03-03T08:47:35.177Z,241.35
2023-03-03T08:50:02.555Z,234.95
2023-03-03T08:52:29.197Z,232.30
2023-03-03T08:54:56.452Z,227.88
2023-03-03T08:57:23.110Z,228.10
2023-03-03T08:59:50.351Z,239.85
2023-03-03T09:02:17.729Z,247.32
2023-03-03T09:04:45.020Z,241.77
2023-03-03T09:07:11.679Z,263.92
2023-03-03T09:09:39.884Z,242.00
2023-03-03T09:12:22.338Z,231.60
2023-03-03T09:14:51.598Z,232.50
2023-03-03T09:17:38.457Z,235.48
2023-03-03T09:20:23.820Z,239.07
2023-03-03T09:22:50.862Z,254.48
2023-03-03T09:25:44.449Z,232.27
2023-03-03T09:28:31.671Z,189.68
2023-03-03T09:31:03.094Z,189.02
2023-03-03T09:33:57.787Z,200.57
2023-03-03T09:36:29.597Z,201.68
2023-03-03T09:38:58.430Z,224.25
2023-03-03T09:42:05.162Z,210.70
2023-03-03T09:44:38.270Z,229.13
2023-03-03T09:47:11.575Z,237.85
2023-03-03T09:50:14.444Z,169.35
2023-03-03T09:52:48.582Z,178.53
2023-03-03T09:55:37.230Z,188.63
2023-03-03T09:58:35.659Z,229.30
2023-03-03T10:01:05.652Z,236.35
2023-03-03T10:03:41.181Z,223.02
2023-03-03T10:06:39.410Z,240.20
2023-03-03T10:09:17.946Z,225.88
2023-03-03T10:12:23.923Z,221.23
2023-03-03T10:15:15.836Z,165.48
2023-03-03T10:17:53.695Z,178.55
2023-03-03T10:20:49.718Z,173.07
2023-03-03T10:23:21.569Z,146.95
2023-03-03T10:26:19.650Z,152.82
2023-03-03T10:28:58.571Z,154.13
2023-03-03T10:31:45.272Z,145.02
2023-03-03T10:34:48.604Z,115.47
2023-03-03T10:37:22.970Z,107.57
2023-03-03T10:40:11.012Z,123.65
2023-03-03T10:42:59.419Z,146.20
2023-03-03T10:45:46.026Z,156.80
2023-03-03T10:48:45.213Z,143.82
2023-03-03T10:51:45.648Z,137.98
2023-03-03T10:54:24.481Z,125.68
2023-03-03T10:56:57.635Z,96.70
2023-03-03T10:59:36.534Z,73.88
2023-03-03T11:02:23.867Z,78.05
2023-03-03T11:05:05.303Z,78.18
2023-03-03T11:07:54.591Z,102.15
2023-03-03T11:10:35.545Z,104.68
2023-03-03T11:13:13.533Z,111.72
2023-03-03T11:16:11.490Z,131.07
2023-03-03T11:19:02.490Z,128.73
2023-03-03T11:21:37.565Z,179.70
2023-03-03T11:24:38.529Z,181.02
2023-03-03T11:27:17.066Z,178.20
2023-03-03T11:30:34.582Z,160.95
2023-03-03T11:33:30.287Z,167.07
2023-03-03T11:36:00.531Z,182.18
2023-03-03T11:38:59.604Z,175.45
2023-03-03T11:41:36.773Z,185.77
2023-03-03T11:44:08.951Z,206.98
2023-03-03T11:47:04.769Z,186.98
2023-03-03T11:49:47.229Z,202.77
2023-03-03T11:52:38.941Z,200.38
2023-03-03T11:55:30.939Z,207.32
2023-03-03T11:58:22.416Z,208.27
2023-03-03T12:01:15.980Z,200.38
2023-03-03T12:03:49.107Z,210.38
2023-03-03T12:06:51.840Z,190.00
2023-03-03T12:09:39.681Z,204.98
2023-03-03T12:12:13.576Z,206.02
2023-03-03T12:15:04.714Z,193.63
2023-03-03T12:17:55.933Z,209.20
2023-03-03T12:20:35.752Z,203.73
2023-03-03T12:23:36.662Z,202.40
2023-03-03T12:26:16.030Z,198.23
2023-03-03T12:28:59.183Z,192.60
2023-03-03T12:31:54.337Z,194.10
2023-03-03T12:34:48.976Z,180.00
2023-03-03T12:37:42.532Z,178.70
2023-03-03T12:40:32.241Z,184.40
2023-03-03T12:43:17.353Z,173.10
2023-03-03T12:46:21.389Z,164.77
2023-03-03T12:48:54.834Z,159.95
2023-03-03T12:51:35.573Z,164.63
2023-03-03T12:54:38.461Z,164.70
2023-03-03T12:57:27.508Z,164.93
2023-03-03T13:00:09.155Z,181.88
2023-03-03T13:02:43.351Z,156.15
2023-03-03T13:05:36.460Z,155.82
2023-03-03T13:08:31.939Z,160.88
2023-03-03T13:11:17.148Z,141.27
2023-03-03T13:13:58.965Z,146.68
2023-03-03T13:16:41.512Z,138.57
2023-03-03T13:19:16.018Z,154.68
2023-03-03T13:22:13.250Z,141.48
2023-03-03T13:24:53.961Z,137.57
2023-03-03T13:27:27.472Z,121.97
2023-03-03T13:29:57.784Z,132.75
2023-03-03T13:32:37.705Z,134.40
2023-03-03T13:35:30.011Z,136.98
2023-03-03T13:37:58.705Z,138.38
2023-03-03T13:40:44.947Z,139.45
2023-03-03T13:43:24.097Z,125.22
2023-03-03T13:46:14.825Z,116.70
2023-03-03T13:49:03.449Z,118.85
2023-03-03T13:51:36.615Z,122.78
2023-03-03T13:56:58.564Z,130.27
2023-03-03T13:59:45.538Z,122.80
2023-03-03T14:02:41.238Z,101.97
2023-03-03T14:05:21.246Z,107.45
2023-03-03T14:08:13.380Z,100.28
2023-03-03T14:10:51.730Z,117.18
2023-03-03T14:13:51.175Z,107.82
2023-03-03T14:16:39.683Z,97.85
2023-03-03T14:19:25.922Z,94.57
2023-03-03T14:22:24.142Z,84.22
2023-03-03T14:25:05.933Z,86.43
2023-03-03T14:27:45.013Z,85.07
2023-03-03T14:30:30.914Z,85.95
2023-03-03T14:33:10.397Z,76.53
2023-03-03T14:35:40.654Z,74.90
2023-03-03T14:38:31.966Z,69.95
2023-03-03T14:41:20.302Z,70.63
2023-03-03T14:44:02.855Z,59.22
2023-03-03T14:46:39.499Z,69.72
2023-03-03T14:49:33.655Z,53.85
2023-03-03T14:52:32.020Z,55.40
2023-03-03T14:55:05.393Z,49.40
2023-03-03T14:57:48.625Z,51.28
2023-03-03T15:02:43.492Z,46.22
2023-03-03T15:05:24.932Z,48.55
2023-03-03T15:07:54.208Z,47.05
2023-03-03T15:10:30.401Z,48.22
2023-03-03T15:12:57.434Z,50.58
2023-03-03T15:15:28.769Z,44.47
2023-03-03T15:18:04.200Z,49.15
2023-03-03T15:20:59.327Z,49.90
2023-03-03T15:23:52.399Z,45.33
2023-03-03T15:26:42.001Z,32.20
2023-03-03T15:29:30.727Z,47.80
2023-03-03T15:32:29.568Z,46.45
2023-03-03T15:35:04.318Z,49.35
2023-03-03T15:37:40.215Z,39.33
2023-03-03T15:40:27.452Z,42.90
2023-03-03T15:43:13.653Z,42.85
2023-03-03T15:46:04.076Z,50.00
2023-03-03T15:49:08.633Z,46.08
2023-03-03T15:52:22.432Z,42.00
2023-03-03T15:55:09.024Z,44.13
2023-03-03T15:57:48.193Z,42.35
2023-03-03T16:00:30.337Z,48.83
2023-03-03T16:03:30.490Z,37.95
2023-03-03T16:06:05.521Z,39.67
2023-03-03T16:09:01.753Z,41.15
2023-03-03T16:11:49.670Z,41.60
2023-03-03T16:14:39.825Z,44.10
2023-03-03T16:17:37.581Z,41.75
2023-03-03T16:20:17.092Z,36.03
2023-03-03T16:22:56.607Z,41.80
2023-03-03T16:26:05.482Z,38.45
2023-03-03T16:28:58.040Z,42.22
2023-03-03T16:31:44.101Z,41.33
2023-03-03T16:34:49.285Z,36.47
2023-03-03T16:37:25.496Z,36.88
2023-03-03T16:39:56.695Z,41.15
2023-03-03T16:42:23.614Z,40.97
2023-03-03T16:45:09.787Z,41.97
2023-03-03T16:47:59.200Z,41.78
2023-03-03T16:50:40.814Z,44.65
2023-03-03T16:53:34.515Z,45.03
2023-03-03T16:58:54.122Z,44.03
2023-03-03T17:01:36.322Z,45.92
2023-03-03T17:04:24.320Z,48.87
2023-03-03T17:06:59.177Z,48.63
2023-03-03T17:09:51.705Z,53.95
2023-03-03T17:12:31.979Z,51.08
2023-03-03T17:15:32.439Z,50.80
2023-03-03T17:18:06.348Z,49.80
2023-03-03T17:20:57.087Z,53.92
2023-03-03T17:23:27.050Z,63.67
2023-03-03T17:26:34.635Z,65.45
2023-03-03T17:29:26.178Z,57.47
2023-03-03T17:32:20.295Z,61.08
2023-03-03T17:35:11.363Z,52.35
2023-03-03T17:38:05.712Z,49.65
2023-03-03T17:40:48.529Z,54.88
2023-03-03T17:43:31.458Z,50.22
2023-03-03T17:46:02.310Z,46.60
2023-03-03T17:48:47.550Z,51.33
2023-03-03T17:51:29.275Z,48.38
2023-03-03T17:54:13.024Z,46.17
2023-03-03T17:57:14.134Z,47.75
2023-03-03T18:00:02.217Z,47.78
2023-03-03T18:02:37.284Z,50.38
2023-03-03T18:05:18.940Z,58.40
2023-03-03T18:08:13.989Z,61.65
2023-03-03T18:11:07.983Z,58.97
2023-03-03T18:13:37.446Z,66.45
2023-03-03T18:16:36.501Z,69.85
2023-03-03T18:19:12.407Z,108.28
2023-03-03T18:22:04.999Z,91.03
2023-03-03T18:24:53.477Z,74.93
2023-03-03T18:27:32.727Z,70.60
2023-03-03T18:30:25.235Z,60.97
2023-03-03T18:32:58.805Z,63.47
2023-03-03T18:35:34.072Z,64.95
2023-03-03T18:38:16.104Z,63.97
2023-03-03T18:41:09.880Z,63.88
2023-03-03T18:43:45.766Z,62.28
2023-03-03T18:46:35.747Z,64.78
2023-03-03T18:49:02.332Z,78.72
2023-03-03T18:51:38.456Z,72.22
2023-03-03T18:54:16.872Z,53.40
2023-03-03T18:57:05.955Z,51.20
2023-03-03T18:59:35.990Z,58.08
2023-03-03T19:02:12.145Z,53.17
2023-03-03T19:04:57.221Z,44.72
2023-03-03T19:07:30.150Z,53.08
2023-03-03T19:10:03.644Z,63.70
2023-03-03T19:12:52.413Z,54.97
2023-03-03T19:15:32.027Z,58.10
2023-03-03T19:18:14.339Z,66.07
2023-03-03T19:20:49.179Z,76.32
2023-03-03T19:23:47.016Z,65.32
2023-03-03T19:26:28.257Z,61.80
2023-03-03T19:29:19.669Z,58.33
2023-03-03T19:32:26.608Z,56.67
2023-03-03T19:35:20.507Z,59.97
2023-03-03T19:38:09.530Z,55.15
2023-03-03T19:41:09.284Z,59.67
2023-03-03T19:44:00.140Z,61.28
2023-03-03T19:46:43.180Z,56.78
2023-03-03T19:49:47.313Z,61.05
2023-03-03T19:52:33.304Z,62.33
2023-03-03T19:55:18.214Z,63.63
2023-03-03T19:58:12.398Z,56.15
2023-03-03T20:00:46.766Z,58.35
2023-03-03T20:03:47.321Z,57.60
2023-03-03T20:06:33.074Z,51.83
2023-03-03T20:09:29.666Z,59.50
2023-03-03T20:12:11.418Z,52.97
2023-03-03T20:14:50.285Z,60.63
2023-03-03T20:17:48.497Z,56.10
2023-03-03T20:20:49.433Z,58.85
2023-03-03T20:23:40.052Z,58.70
2023-03-03T20:26:36.006Z,59.58
2023-03-03T20:29:33.310Z,59.08
2023-03-03T20:32:11.402Z,64.53
2023-03-03T20:34:57.275Z,55.60
2023-03-03T20:37:54.152Z,58.10
2023-03-03T20:40:55.790Z,53.75
2023-03-03T20:43:50.440Z,60.88
2023-03-03T20:46:53.615Z,56.38
2023-03-03T20:49:58.658Z,59.85
2023-03-03T20:52:55.662Z,58.25
2023-03-03T20:55:34.517Z,53.60
2023-03-03T20:58:12.416Z,63.80
2023-03-03T21:01:22.431Z,55.92
2023-03-03T21:03:49.294Z,58.72
2023-03-03T21:06:18.382Z,63.20
2023-03-03T21:08:49.726Z,55.17
2023-03-03T21:11:20.903Z,64.40
2023-03-03T21:13:57.451Z,61.67
2023-03-03T21:16:24.705Z,54.60
2023-03-03T21:18:59.610Z,58.10
2023-03-03T21:21:29.332Z,52.97
2023-03-03T21:23:56.547Z,58.40
2023-03-03T21:26:45.596Z,55.50
2023-03-03T21:29:19.437Z,61.83
2023-03-03T21:31:52.529Z,60.88
2023-03-03T21:34:23.197Z,63.42
2023-03-03T21:36:51.333Z,58.22
2023-03-03T21:39:33.735Z,60.97
2023-03-03T21:42:07.308Z,60.00
2023-03-03T21:44:41.685Z,51.95
2023-03-03T21:47:15.118Z,56.53
2023-03-03T21:49:44.123Z,53.60
2023-03-03T21:52:13.252Z,55.65
2023-03-03T21:54:40.451Z,52.03
2023-03-03T21:57:07.710Z,58.50
2023-03-03T21:59:34.410Z,54.22
2023-03-03T22:02:01.675Z,48.28
2023-03-03T22:04:28.418Z,50.88
2023-03-03T22:06:56.012Z,49.15
2023-03-03T22:09:23.582Z,47.08
2023-03-03T22:11:50.211Z,42.45
2023-03-03T22:14:17.719Z,39.88
2023-03-03T22:16:46.008Z,42.15
2023-03-03T22:19:12.671Z,45.40
2023-03-03T22:21:40.109Z,43.38
2023-03-03T22:24:08.032Z,38.33
2023-03-03T22:26:35.534Z,35.92
2023-03-03T22:29:03.167Z,33.20
2023-03-03T22:31:30.302Z,28.45
2023-03-03T22:33:57.139Z,31.00
2023-03-03T22:36:24.094Z,28.90
2023-03-03T22:38:51.588Z,22.15
2023-03-03T22:41:18.699Z,25.63
2023-03-03T22:43:48.129Z,26.90
2023-03-03T22:46:15.245Z,22.98
2023-03-03T22:48:42.004Z,17.63
2023-03-03T22:51:08.924Z,20.35
2023-03-03T22:53:36.214Z,23.70
2023-03-03T22:56:02.855Z,17.33
2023-03-03T22:58:30.089Z,19.70
2023-03-03T23:00:57.024Z,16.90
2023-03-03T23:03:24.745Z,17.48
2023-03-03T23:05:52.039Z,29.33
2023-03-03T23:08:20.633Z,21.98
2023-03-03T23:10:48.125Z,15.18
2023-03-03T23:13:16.156Z,24.27
2023-03-03T23:15:43.334Z,15.30
2023-03-03T23:18:10.421Z,13.20
2023-03-03T23:20:37.963Z,16.63
2023-03-03T23:23:04.939Z,14.75
2023-03-03T23:25:32.373Z,19.10
2023-03-03T23:27:58.977Z,25.48
2023-03-03T23:30:26.376Z,17.05
2023-03-03T23:32:53.891Z,20.33
2023-03-03T23:35:20.913Z,29.52
2023-03-03T23:37:48.365Z,17.58
2023-03-03T23:40:16.167Z,17.83
2023-03-03T23:42:44.148Z,17.27
2023-03-03T23:45:12.197Z,13.82
2023-03-03T23:47:39.931Z,17.92
2023-03-03T23:50:07.218Z,20.73
2023-03-03T23:52:34.558Z,11.98
2023-03-03T23:55:01.464Z,25.15
2023-03-03T23:57:28.752Z,23.90
2023-03-03T23:59:55.399Z,21.45
